createdAt,value
2017-09-29T00:01:52.471Z,57.37
2017-09-29T00:03:54.949Z,57.33
2017-09-29T00:05:57.385Z,57.32
2017-09-29T00:07:59.834Z,57.34
2017-09-29T00:10:02.298Z,57.37
2017-09-29T00:12:04.728Z,57.35
2017-09-29T00:14:07.169Z,57.35
2017-09-29T00:16:09.625Z,57.33
2017-09-29T00:18:12.103Z,57.35
2017-09-29T00:20:14.541Z,57.42
2017-09-29T00:22:17.014Z,57.42
2017-09-29T00:24:19.458Z,57.44
2017-09-29T00:26:22.035Z,57.37
2017-09-29T00:28:24.501Z,57.36
2017-09-29T00:30:26.944Z,57.37
2017-09-29T00:32:29.382Z,57.46
2017-09-29T00:34:31.860Z,57.55
2017-09-29T00:36:34.292Z,57.60
2017-09-29T00:38:36.752Z,57.64
2017-09-29T00:40:39.443Z,57.65
2017-09-29T00:42:41.964Z,57.73
2017-09-29T00:44:44.409Z,57.79
2017-09-29T00:46:46.881Z,57.87
2017-09-29T00:48:49.368Z,57.91
2017-09-29T00:50:51.817Z,57.99
2017-09-29T00:52:54.293Z,57.98
2017-09-29T00:54:56.733Z,58.03
2017-09-29T00:56:59.240Z,58.03
2017-09-29T00:59:01.736Z,58.01
2017-09-29T01:01:04.185Z,57.96
2017-09-29T01:03:06.701Z,57.95
2017-09-29T01:05:09.164Z,57.89
2017-09-29T01:07:11.605Z,57.87
2017-09-29T01:09:14.050Z,57.86
2017-09-29T01:11:16.513Z,57.86
2017-09-29T01:13:19.011Z,57.92
2017-09-29T01:15:21.472Z,57.89
2017-09-29T01:17:23.946Z,57.88
2017-09-29T01:19:26.437Z,57.83
2017-09-29T01:21:28.890Z,57.84
2017-09-29T01:23:31.366Z,57.85
2017-09-29T01:25:33.820Z,57.89
2017-09-29T01:27:36.271Z,57.92
2017-09-29T01:29:38.739Z,57.96
2017-09-29T01:31:41.191Z,57.99
2017-09-29T01:33:43.709Z,58.01
2017-09-29T01:35:46.210Z,58.03
2017-09-29T01:37:48.754Z,58.07
2017-09-29T01:39:51.198Z,58.11
2017-09-29T01:41:53.903Z,58.12
2017-09-29T01:43:56.349Z,58.17
2017-09-29T01:45:58.840Z,58.19
2017-09-29T01:48:01.304Z,58.25
2017-09-29T01:50:03.782Z,58.22
2017-09-29T01:52:06.253Z,58.24
2017-09-29T01:54:08.916Z,58.25
2017-09-29T01:56:11.388Z,58.31
2017-09-29T01:58:13.856Z,58.33
2017-09-29T02:00:16.394Z,58.35
2017-09-29T02:02:18.845Z,58.38
2017-09-29T02:04:21.282Z,58.38
2017-09-29T02:06:23.748Z,58.42
2017-09-29T02:08:26.238Z,58.48
2017-09-29T02:10:28.783Z,58.47
2017-09-29T02:12:31.316Z,58.52
2017-09-29T02:14:33.763Z,58.56
2017-09-29T02:16:36.200Z,58.53
2017-09-29T02:18:38.756Z,58.58
2017-09-29T02:20:41.193Z,58.59
2017-09-29T02:22:43.634Z,58.61
2017-09-29T02:24:46.216Z,58.59
2017-09-29T02:26:48.676Z,58.62
2017-09-29T02:28:51.222Z,58.70
2017-09-29T02:30:53.693Z,58.70
2017-09-29T02:32:56.191Z,58.73
2017-09-29T02:34:58.748Z,58.76
2017-09-29T02:37:01.214Z,58.77
2017-09-29T02:39:03.664Z,58.75
2017-09-29T02:41:06.116Z,58.78
2017-09-29T02:43:08.722Z,58.77
2017-09-29T02:45:11.226Z,58.74
2017-09-29T02:47:13.657Z,58.74
2017-09-29T02:49:16.138Z,58.79
2017-09-29T02:51:18.599Z,58.67
2017-09-29T02:53:21.032Z,58.66
2017-09-29T02:55:23.499Z,58.59
2017-09-29T02:57:29.868Z,58.57
2017-09-29T02:59:32.989Z,58.61
2017-09-29T03:01:37.261Z,58.61
2017-09-29T03:03:41.630Z,58.60
2017-09-29T03:05:46.880Z,58.61
2017-09-29T03:07:49.367Z,58.60
2017-09-29T03:09:51.817Z,58.62
2017-09-29T03:11:54.428Z,58.63
2017-09-29T03:13:56.921Z,58.68
2017-09-29T03:15:59.413Z,58.64
2017-09-29T03:18:01.861Z,58.63
2017-09-29T03:20:04.325Z,58.64
2017-09-29T03:22:06.841Z,58.69
2017-09-29T03:24:09.280Z,58.68
2017-09-29T03:26:11.751Z,58.63
2017-09-29T03:28:14.226Z,58.61
2017-09-29T03:30:16.668Z,58.62
2017-09-29T03:32:20.100Z,58.68
2017-09-29T03:34:22.554Z,58.64
2017-09-29T03:36:25.008Z,58.67
2017-09-29T03:38:27.478Z,58.64
2017-09-29T03:40:29.968Z,58.62
2017-09-29T03:42:32.426Z,58.64
2017-09-29T03:44:35.080Z,58.67
2017-09-29T03:46:37.525Z,58.62
2017-09-29T03:48:39.976Z,58.68
2017-09-29T03:50:43.861Z,58.68
2017-09-29T03:52:48.813Z,58.73
2017-09-29T03:54:52.160Z,58.73
2017-09-29T03:56:56.354Z,58.76
2017-09-29T03:59:00.917Z,58.76
2017-09-29T04:01:03.392Z,58.80
2017-09-29T04:03:05.945Z,58.75
2017-09-29T04:05:08.398Z,58.74
2017-09-29T04:07:10.885Z,58.73
2017-09-29T04:09:13.349Z,58.69
2017-09-29T04:11:15.793Z,58.70
2017-09-29T04:13:18.223Z,58.71
2017-09-29T04:15:20.690Z,58.70
2017-09-29T04:17:24.052Z,58.66
2017-09-29T04:19:26.528Z,58.68
2017-09-29T04:21:28.985Z,58.72
2017-09-29T04:23:31.433Z,58.67
2017-09-29T04:25:33.876Z,58.63
2017-09-29T04:27:36.354Z,58.67
2017-09-29T04:29:39.092Z,58.62
2017-09-29T04:31:41.741Z,58.64
2017-09-29T04:33:44.332Z,58.61
2017-09-29T04:35:46.780Z,58.64
2017-09-29T04:37:49.269Z,58.68
2017-09-29T04:39:51.737Z,58.67
2017-09-29T04:41:54.208Z,58.56
2017-09-29T04:43:56.738Z,58.63
2017-09-29T04:45:59.264Z,58.64
2017-09-29T04:48:01.697Z,58.64
2017-09-29T04:50:04.141Z,58.66
2017-09-29T04:52:06.657Z,58.66
2017-09-29T04:54:09.086Z,58.69
2017-09-29T04:56:11.559Z,58.68
2017-09-29T04:58:14.101Z,58.64
2017-09-29T05:00:16.535Z,58.66
2017-09-29T05:02:18.969Z,58.65
2017-09-29T05:04:21.455Z,58.64
2017-09-29T05:06:23.960Z,58.65
2017-09-29T05:08:26.474Z,58.68
2017-09-29T05:10:29.004Z,58.71
2017-09-29T05:12:31.457Z,58.70
2017-09-29T05:14:33.901Z,58.70
2017-09-29T05:16:36.485Z,58.66
2017-09-29T05:18:38.933Z,58.71
2017-09-29T05:20:41.381Z,58.72
2017-09-29T05:22:43.854Z,58.73
2017-09-29T05:24:46.450Z,58.73
2017-09-29T05:26:48.886Z,58.73
2017-09-29T05:28:51.368Z,58.70
2017-09-29T05:30:53.856Z,58.72
2017-09-29T05:32:56.297Z,58.74
2017-09-29T05:34:58.768Z,58.73
2017-09-29T05:37:01.264Z,58.73
2017-09-29T05:39:03.739Z,58.68
2017-09-29T05:41:06.214Z,58.69
2017-09-29T05:43:08.664Z,58.78
2017-09-29T05:45:11.136Z,58.74
2017-09-29T05:47:13.755Z,58.78
2017-09-29T05:49:16.195Z,58.80
2017-09-29T05:51:18.659Z,58.76
2017-09-29T05:53:21.181Z,58.74
2017-09-29T05:55:23.818Z,58.76
2017-09-29T05:57:26.336Z,58.77
2017-09-29T05:59:28.808Z,58.81
2017-09-29T06:01:31.247Z,58.80
2017-09-29T06:03:33.691Z,58.84
2017-09-29T06:05:36.174Z,58.82
2017-09-29T06:07:38.674Z,58.82
2017-09-29T06:09:41.118Z,58.82
2017-09-29T06:11:43.584Z,58.78
2017-09-29T06:13:46.028Z,58.74
2017-09-29T06:15:48.460Z,58.79
2017-09-29T06:17:50.922Z,58.79
2017-09-29T06:19:53.393Z,58.83
2017-09-29T06:21:55.823Z,58.79
2017-09-29T06:23:58.340Z,58.74
2017-09-29T06:26:00.779Z,58.71
2017-09-29T06:28:03.247Z,58.70
2017-09-29T06:30:05.720Z,58.73
2017-09-29T06:32:08.185Z,58.75
2017-09-29T06:34:11.534Z,58.91
2017-09-29T06:36:14.016Z,59.04
2017-09-29T06:38:16.460Z,58.88
2017-09-29T06:40:18.904Z,59.07
2017-09-29T06:42:21.547Z,59.26
2017-09-29T06:44:23.999Z,59.07
2017-09-29T06:46:26.437Z,59.10
2017-09-29T06:48:29.061Z,59.13
2017-09-29T06:50:31.521Z,59.20
2017-09-29T06:52:34.036Z,59.27
2017-09-29T06:54:36.508Z,59.08
2017-09-29T06:56:38.944Z,59.10
2017-09-29T06:58:41.452Z,59.12
2017-09-29T07:00:44.832Z,59.01
2017-09-29T07:02:47.271Z,58.87
2017-09-29T07:04:49.708Z,58.72
2017-09-29T07:06:53.065Z,58.70
2017-09-29T07:08:56.151Z,58.72
2017-09-29T07:10:58.620Z,58.77
2017-09-29T07:13:01.145Z,58.68
2017-09-29T07:15:04.590Z,58.62
2017-09-29T07:17:07.024Z,58.57
2017-09-29T07:19:09.485Z,58.58
2017-09-29T07:21:11.951Z,58.55
2017-09-29T07:23:14.399Z,58.71
2017-09-29T07:25:18.416Z,58.76
2017-09-29T07:27:22.668Z,58.83
2017-09-29T07:29:26.742Z,58.62
2017-09-29T07:31:31.480Z,58.80
2017-09-29T07:33:33.946Z,58.90
2017-09-29T07:35:36.388Z,59.13
2017-09-29T07:37:38.861Z,59.05
2017-09-29T07:39:41.501Z,58.91
2017-09-29T07:41:43.972Z,58.95
2017-09-29T07:43:46.437Z,58.74
2017-09-29T07:45:48.912Z,58.72
2017-09-29T07:47:51.392Z,58.57
2017-09-29T07:49:54.059Z,58.51
2017-09-29T07:51:56.540Z,58.55
2017-09-29T07:53:58.988Z,58.65
2017-09-29T07:56:01.481Z,58.61
2017-09-29T07:58:03.917Z,58.47
2017-09-29T08:00:06.357Z,58.45
2017-09-29T08:02:08.889Z,58.35
2017-09-29T08:04:11.352Z,58.40
2017-09-29T08:06:13.802Z,58.48
2017-09-29T08:08:16.353Z,58.48
2017-09-29T08:10:18.804Z,58.42
2017-09-29T08:12:21.251Z,58.37
2017-09-29T08:14:23.807Z,58.39
2017-09-29T08:16:26.249Z,58.38
2017-09-29T08:18:28.689Z,58.26
2017-09-29T08:20:31.163Z,58.29
2017-09-29T08:22:33.621Z,58.38
2017-09-29T08:24:36.062Z,58.34
2017-09-29T08:26:38.626Z,58.38
2017-09-29T08:28:41.097Z,58.32
2017-09-29T08:30:43.541Z,58.30
2017-09-29T08:32:46.008Z,58.22
2017-09-29T08:34:48.454Z,58.34
2017-09-29T08:36:50.896Z,58.33
2017-09-29T08:38:53.448Z,58.28
2017-09-29T08:40:55.918Z,58.27
2017-09-29T08:42:58.385Z,58.29
2017-09-29T08:45:00.882Z,58.32
2017-09-29T08:47:03.357Z,58.32
2017-09-29T08:49:05.799Z,58.33
2017-09-29T08:51:08.378Z,58.22
2017-09-29T08:53:10.818Z,58.23
2017-09-29T08:55:13.274Z,58.19
2017-09-29T08:57:15.740Z,58.22
2017-09-29T08:59:18.184Z,58.30
2017-09-29T09:01:20.636Z,58.24
2017-09-29T09:03:23.087Z,58.34
2017-09-29T09:05:25.533Z,58.28
2017-09-29T09:07:27.971Z,58.42
2017-09-29T09:09:30.504Z,58.41
2017-09-29T09:11:32.945Z,58.23
2017-09-29T09:13:35.388Z,58.23
2017-09-29T09:15:37.949Z,58.30
2017-09-29T09:17:40.390Z,58.25
2017-09-29T09:19:42.841Z,58.27
2017-09-29T09:21:45.324Z,58.32
2017-09-29T09:23:47.764Z,58.29
2017-09-29T09:25:50.265Z,58.19
2017-09-29T09:27:52.834Z,58.12
2017-09-29T09:29:55.265Z,58.08
2017-09-29T09:31:57.700Z,58.07
2017-09-29T09:34:00.166Z,58.06
2017-09-29T09:36:02.612Z,58.05
2017-09-29T09:38:05.052Z,58.11
2017-09-29T09:40:07.556Z,58.09
2017-09-29T09:42:10.025Z,58.20
2017-09-29T09:44:12.518Z,58.17
2017-09-29T09:46:15.022Z,58.08
2017-09-29T09:48:17.493Z,58.12
2017-09-29T09:50:19.942Z,58.20
2017-09-29T09:52:22.884Z,58.17
2017-09-29T09:54:25.378Z,58.19
2017-09-29T09:56:27.804Z,58.15
2017-09-29T09:58:30.272Z,58.22
2017-09-29T10:00:32.735Z,58.12
2017-09-29T10:02:35.173Z,58.12
2017-09-29T10:04:37.640Z,58.04
2017-09-29T10:06:40.142Z,57.92
2017-09-29T10:08:42.645Z,57.98
2017-09-29T10:10:45.116Z,58.09
2017-09-29T10:12:47.555Z,58.12
2017-09-29T10:14:50.000Z,57.96
2017-09-29T10:16:52.504Z,58.53
2017-09-29T10:18:55.001Z,58.63
2017-09-29T10:20:57.449Z,58.69
2017-09-29T10:22:59.921Z,58.91
2017-09-29T10:25:02.374Z,58.94
2017-09-29T10:27:04.869Z,59.44
2017-09-29T10:29:07.345Z,59.58
2017-09-29T10:31:09.784Z,60.10
2017-09-29T10:33:12.256Z,59.78
2017-09-29T10:35:14.765Z,60.27
2017-09-29T10:37:17.237Z,60.14
2017-09-29T10:39:19.808Z,60.48
2017-09-29T10:41:22.301Z,60.84
2017-09-29T10:43:24.817Z,60.74
2017-09-29T10:45:27.304Z,60.69
2017-09-29T10:47:29.796Z,60.82
2017-09-29T10:49:32.244Z,60.65
2017-09-29T10:51:34.705Z,60.66
2017-09-29T10:53:37.328Z,60.42
2017-09-29T10:55:39.820Z,60.31
2017-09-29T10:57:42.284Z,60.28
2017-09-29T10:59:44.767Z,60.22
2017-09-29T11:01:47.213Z,60.15
2017-09-29T11:03:49.668Z,60.07
2017-09-29T11:05:52.168Z,60.03
2017-09-29T11:07:54.721Z,59.87
2017-09-29T11:09:57.165Z,59.77
2017-09-29T11:11:59.633Z,59.69
2017-09-29T11:14:02.093Z,59.61
2017-09-29T11:16:04.541Z,59.49
2017-09-29T11:18:07.022Z,59.48
2017-09-29T11:20:09.497Z,59.38
2017-09-29T11:22:11.950Z,59.38
2017-09-29T11:24:15.200Z,59.34
2017-09-29T11:26:17.702Z,59.24
2017-09-29T11:28:20.144Z,59.22
2017-09-29T11:30:22.612Z,59.20
2017-09-29T11:32:25.168Z,59.11
2017-09-29T11:34:27.618Z,59.00
2017-09-29T11:36:30.156Z,59.02
2017-09-29T11:38:32.606Z,58.90
2017-09-29T11:40:35.137Z,58.78
2017-09-29T11:42:37.652Z,58.77
2017-09-29T11:44:40.093Z,58.60
2017-09-29T11:46:42.544Z,58.52
2017-09-29T11:48:45.009Z,58.60
2017-09-29T11:50:47.499Z,58.64
2017-09-29T11:52:49.994Z,58.65
2017-09-29T11:54:52.635Z,58.60
2017-09-29T11:56:55.175Z,58.59
2017-09-29T11:58:57.617Z,58.53
2017-09-29T12:01:00.073Z,58.48
2017-09-29T12:03:02.630Z,58.53
2017-09-29T12:05:05.095Z,58.41
2017-09-29T12:07:07.569Z,58.41
2017-09-29T12:09:10.009Z,58.34
2017-09-29T12:11:12.444Z,58.29
2017-09-29T12:13:14.904Z,58.20
2017-09-29T12:15:17.376Z,58.17
2017-09-29T12:17:19.834Z,58.02
2017-09-29T12:19:22.405Z,58.05
2017-09-29T12:21:24.836Z,58.01
2017-09-29T12:23:27.298Z,57.93
2017-09-29T12:25:29.816Z,57.91
2017-09-29T12:27:32.258Z,57.92
2017-09-29T12:29:34.696Z,57.91
2017-09-29T12:31:37.201Z,57.85
2017-09-29T12:33:39.731Z,57.78
2017-09-29T12:35:42.317Z,57.77
2017-09-29T12:37:44.841Z,57.82
2017-09-29T12:39:47.285Z,57.78
2017-09-29T12:41:49.772Z,57.83
2017-09-29T12:43:52.240Z,57.83
2017-09-29T12:45:54.724Z,57.81
2017-09-29T12:47:57.231Z,57.75
2017-09-29T12:49:59.847Z,57.77
2017-09-29T12:52:02.430Z,57.71
2017-09-29T12:54:04.863Z,57.66
2017-09-29T12:56:07.479Z,57.65
2017-09-29T12:58:10.030Z,57.65
2017-09-29T13:00:12.492Z,57.63
2017-09-29T13:02:14.945Z,57.54
2017-09-29T13:04:17.376Z,57.53
2017-09-29T13:06:19.908Z,57.55
2017-09-29T13:08:22.384Z,57.54
2017-09-29T13:10:24.854Z,57.52
2017-09-29T13:12:27.321Z,57.57
2017-09-29T13:14:29.892Z,57.43
2017-09-29T13:16:32.327Z,57.44
2017-09-29T13:18:34.837Z,57.47
2017-09-29T13:20:37.308Z,57.47
2017-09-29T13:22:39.757Z,57.45
2017-09-29T13:24:42.247Z,57.47
2017-09-29T13:26:44.712Z,57.41
2017-09-29T13:28:47.341Z,57.34
2017-09-29T13:30:49.777Z,57.28
2017-09-29T13:32:52.267Z,57.27
2017-09-29T13:34:54.720Z,57.23
2017-09-29T13:36:57.160Z,57.32
2017-09-29T13:38:59.624Z,57.35
2017-09-29T13:41:02.066Z,57.32
2017-09-29T13:43:04.506Z,57.41
2017-09-29T13:45:06.968Z,57.42
2017-09-29T13:47:09.407Z,57.37
2017-09-29T13:49:11.856Z,57.34
2017-09-29T13:51:14.398Z,57.31
2017-09-29T13:53:16.931Z,57.36
2017-09-29T13:55:19.429Z,57.37
2017-09-29T13:57:22.078Z,57.34
2017-09-29T13:59:24.537Z,57.28
2017-09-29T14:01:27.008Z,57.31
2017-09-29T14:03:29.472Z,57.29
2017-09-29T14:05:31.929Z,57.30
2017-09-29T14:07:34.368Z,57.26
2017-09-29T14:09:36.945Z,57.24
2017-09-29T14:11:39.385Z,57.26
2017-09-29T14:13:41.821Z,57.24
2017-09-29T14:15:44.301Z,57.27
2017-09-29T14:17:46.836Z,57.29
2017-09-29T14:19:49.276Z,57.27
2017-09-29T14:21:51.724Z,57.25
2017-09-29T14:23:54.195Z,57.22
2017-09-29T14:25:56.670Z,57.21
2017-09-29T14:27:59.149Z,57.25
2017-09-29T14:30:01.614Z,57.26
2017-09-29T14:32:04.124Z,57.30
2017-09-29T14:34:07.578Z,57.30
2017-09-29T14:36:10.040Z,57.27
2017-09-29T14:38:12.577Z,57.20
2017-09-29T14:40:15.047Z,57.26
2017-09-29T14:42:17.548Z,57.25
2017-09-29T14:44:20.006Z,57.26
2017-09-29T14:46:22.551Z,57.21
2017-09-29T14:48:25.057Z,57.19
2017-09-29T14:50:27.524Z,57.23
2017-09-29T14:52:29.997Z,57.18
2017-09-29T14:54:32.436Z,57.19
2017-09-29T14:56:34.889Z,57.04
2017-09-29T14:58:37.648Z,57.11
2017-09-29T15:00:40.101Z,57.18
2017-09-29T15:02:42.636Z,57.17
2017-09-29T15:04:45.096Z,57.11
2017-09-29T15:06:47.540Z,57.10
2017-09-29T15:08:49.979Z,57.14
2017-09-29T15:10:52.444Z,57.25
2017-09-29T15:12:54.349Z,57.28
2017-09-29T15:14:56.789Z,57.08
2017-09-29T15:16:59.248Z,57.18
2017-09-29T15:19:01.704Z,57.27
2017-09-29T15:21:04.145Z,57.37
2017-09-29T15:23:06.610Z,57.38
2017-09-29T15:25:09.069Z,57.30
2017-09-29T15:27:12.421Z,57.24
2017-09-29T15:29:14.911Z,57.22
2017-09-29T15:31:17.448Z,57.24
2017-09-29T15:33:19.925Z,57.19
2017-09-29T15:35:22.493Z,57.25
2017-09-29T15:37:24.923Z,57.45
2017-09-29T15:39:27.377Z,57.27
2017-09-29T15:41:29.868Z,57.13
2017-09-29T15:43:32.309Z,57.11
2017-09-29T15:45:34.754Z,57.21
2017-09-29T15:47:38.558Z,57.13
2017-09-29T15:49:41.109Z,57.05
2017-09-29T15:51:43.556Z,57.10
2017-09-29T15:53:46.036Z,57.21
2017-09-29T15:55:48.499Z,57.20
2017-09-29T15:57:50.948Z,57.07
2017-09-29T15:59:54.492Z,57.20
2017-09-29T16:01:56.944Z,57.33
2017-09-29T16:03:59.393Z,57.44
2017-09-29T16:06:01.884Z,57.41
2017-09-29T16:08:04.325Z,57.43
2017-09-29T16:10:06.793Z,57.41
2017-09-29T16:12:09.292Z,57.46
2017-09-29T16:14:11.737Z,57.48
2017-09-29T16:16:14.248Z,57.52
2017-09-29T16:18:16.790Z,57.61
2017-09-29T16:20:19.286Z,57.78
2017-09-29T16:22:21.754Z,57.66
2017-09-29T16:24:24.226Z,57.78
2017-09-29T16:26:26.758Z,57.65
2017-09-29T16:28:29.203Z,57.77
2017-09-29T16:30:31.774Z,57.89
2017-09-29T16:32:34.316Z,57.86
2017-09-29T16:34:36.772Z,57.90
2017-09-29T16:36:39.259Z,58.06
2017-09-29T16:38:41.701Z,58.04
2017-09-29T16:40:44.203Z,58.04
2017-09-29T16:42:46.676Z,57.87
2017-09-29T16:44:49.134Z,57.96
2017-09-29T16:46:51.608Z,57.91
2017-09-29T16:48:54.076Z,57.96
2017-09-29T16:50:56.508Z,57.94
2017-09-29T16:52:58.951Z,58.22
2017-09-29T16:55:01.487Z,58.20
2017-09-29T16:57:03.920Z,58.24
2017-09-29T16:59:06.377Z,58.13
2017-09-29T17:01:09.109Z,58.28
2017-09-29T17:03:11.557Z,58.51
2017-09-29T17:05:13.999Z,58.52
2017-09-29T17:07:16.500Z,58.47
2017-09-29T17:09:18.946Z,58.67
2017-09-29T17:11:21.381Z,58.67
2017-09-29T17:13:23.888Z,58.61
2017-09-29T17:15:26.360Z,58.83
2017-09-29T17:17:28.790Z,58.87
2017-09-29T17:19:31.257Z,58.75
2017-09-29T17:21:33.702Z,58.63
2017-09-29T17:23:36.190Z,58.76
2017-09-29T17:25:38.657Z,58.83
2017-09-29T17:27:41.096Z,59.20
2017-09-29T17:29:43.574Z,59.21
2017-09-29T17:31:46.112Z,59.37
2017-09-29T17:33:48.626Z,59.49
2017-09-29T17:35:51.072Z,59.52
2017-09-29T17:37:53.563Z,59.43
2017-09-29T17:39:56.029Z,59.38
2017-09-29T17:41:58.465Z,59.37
2017-09-29T17:44:00.964Z,59.46
2017-09-29T17:46:03.508Z,59.39
2017-09-29T17:48:05.948Z,59.39
2017-09-29T17:50:08.484Z,59.54
2017-09-29T17:52:10.924Z,59.64
2017-09-29T17:54:13.364Z,59.38
2017-09-29T17:56:15.845Z,59.30
2017-09-29T17:58:18.316Z,59.38
2017-09-29T18:00:20.769Z,59.68
2017-09-29T18:02:23.345Z,59.42
2017-09-29T18:04:25.776Z,60.07
2017-09-29T18:06:28.249Z,59.46
2017-09-29T18:08:30.822Z,59.45
2017-09-29T18:10:33.285Z,59.52
2017-09-29T18:12:35.762Z,59.46
2017-09-29T18:14:38.297Z,59.56
2017-09-29T18:16:41.728Z,59.65
2017-09-29T18:18:44.172Z,60.26
2017-09-29T18:20:46.661Z,60.05
2017-09-29T18:22:49.117Z,60.39
2017-09-29T18:24:51.556Z,60.22
2017-09-29T18:26:54.055Z,60.73
2017-09-29T18:28:56.528Z,60.09
2017-09-29T18:30:58.989Z,60.16
2017-09-29T18:33:01.467Z,59.97
2017-09-29T18:35:03.901Z,60.51
2017-09-29T18:37:06.334Z,60.50
2017-09-29T18:39:08.805Z,60.81
2017-09-29T18:41:16.816Z,60.46
2017-09-29T18:45:54.060Z,60.38
2017-09-29T18:47:56.550Z,60.18
2017-09-29T18:49:58.993Z,60.37
2017-09-29T18:52:01.771Z,60.23
2017-09-29T18:54:04.657Z,60.31
2017-09-29T18:56:07.331Z,60.21
2017-09-29T18:58:09.951Z,60.43
2017-09-29T19:00:12.446Z,60.48
2017-09-29T19:02:14.889Z,60.79
2017-09-29T19:04:17.615Z,60.37
2017-09-29T19:06:20.119Z,60.35
2017-09-29T19:08:22.568Z,60.34
2017-09-29T19:10:25.061Z,61.19
2017-09-29T19:12:28.233Z,60.88
2017-09-29T19:14:30.824Z,60.80
2017-09-29T19:16:33.291Z,60.69
2017-09-29T19:18:35.740Z,60.82
2017-09-29T19:20:38.181Z,61.02
2017-09-29T19:22:40.688Z,61.11
2017-09-29T19:24:43.181Z,61.12
2017-09-29T19:26:45.652Z,61.44
2017-09-29T19:28:48.120Z,60.95
2017-09-29T19:30:50.652Z,61.47
2017-09-29T19:32:53.100Z,61.38
2017-09-29T19:34:55.580Z,61.43
2017-09-29T19:36:58.028Z,61.29
2017-09-29T19:39:00.461Z,61.10
2017-09-29T19:41:03.280Z,60.88
2017-09-29T19:43:05.814Z,61.03
2017-09-29T19:45:08.287Z,61.06
2017-09-29T19:47:10.766Z,61.22
2017-09-29T19:49:13.213Z,61.08
2017-09-29T19:51:15.712Z,61.04
2017-09-29T19:53:18.236Z,61.24
2017-09-29T19:55:20.744Z,61.04
2017-09-29T19:57:23.180Z,61.02
2017-09-29T19:59:25.691Z,61.16
2017-09-29T20:01:28.156Z,61.25
2017-09-29T20:03:30.604Z,61.37
2017-09-29T20:05:33.198Z,61.09
2017-09-29T20:07:35.635Z,61.09
2017-09-29T20:09:38.134Z,61.15
2017-09-29T20:11:40.602Z,61.19
2017-09-29T20:13:43.043Z,61.14
2017-09-29T20:15:45.497Z,61.21
2017-09-29T20:17:47.985Z,61.14
2017-09-29T20:19:50.417Z,61.08
2017-09-29T20:21:52.964Z,61.02
2017-09-29T20:23:55.437Z,61.65
2017-09-29T20:25:57.890Z,61.39
2017-09-29T20:28:00.328Z,61.50
2017-09-29T20:30:02.799Z,61.29
2017-09-29T20:32:05.227Z,61.40
2017-09-29T20:34:07.699Z,61.41
2017-09-29T20:36:10.324Z,61.40
2017-09-29T20:38:12.828Z,61.28
2017-09-29T20:40:15.274Z,61.44
2017-09-29T20:42:17.760Z,61.59
2017-09-29T20:44:20.232Z,62.00
2017-09-29T20:46:22.717Z,61.85
2017-09-29T20:48:25.233Z,61.47
2017-09-29T20:50:27.681Z,61.37
2017-09-29T20:52:30.143Z,61.39
2017-09-29T20:54:32.747Z,61.44
2017-09-29T20:56:35.217Z,61.56
2017-09-29T20:58:37.659Z,61.46
2017-09-29T21:00:40.139Z,61.47
2017-09-29T21:02:42.590Z,61.51
2017-09-29T21:04:45.049Z,61.55
2017-09-29T21:06:47.608Z,61.61
2017-09-29T21:08:50.080Z,61.33
2017-09-29T21:10:52.713Z,61.40
2017-09-29T21:12:55.235Z,61.34
2017-09-29T21:14:57.683Z,61.63
2017-09-29T21:17:00.173Z,61.27
2017-09-29T21:19:02.648Z,61.29
2017-09-29T21:21:05.112Z,61.30
2017-09-29T21:23:07.680Z,61.35
2017-09-29T21:25:10.158Z,61.73
2017-09-29T21:27:12.608Z,61.16
2017-09-29T21:29:15.042Z,61.33
2017-09-29T21:31:17.499Z,61.66
2017-09-29T21:33:19.940Z,61.19
2017-09-29T21:35:22.407Z,61.18
2017-09-29T21:37:24.883Z,61.19
2017-09-29T21:39:27.330Z,61.14
2017-09-29T21:41:29.811Z,61.25
2017-09-29T21:43:32.291Z,61.12
2017-09-29T21:45:34.737Z,61.27
2017-09-29T21:47:37.235Z,61.27
2017-09-29T21:49:39.707Z,61.27
2017-09-29T21:51:42.142Z,61.15
2017-09-29T21:53:44.588Z,61.28
2017-09-29T21:55:47.112Z,61.16
2017-09-29T21:57:49.577Z,61.29
2017-09-29T21:59:52.010Z,61.32
2017-09-29T22:01:54.474Z,61.11
2017-09-29T22:03:56.908Z,61.55
2017-09-29T22:05:59.399Z,61.20
2017-09-29T22:08:02.116Z,61.16
2017-09-29T22:10:04.591Z,61.09
2017-09-29T22:12:07.027Z,61.31
2017-09-29T22:14:09.505Z,61.31
2017-09-29T22:16:11.948Z,61.59
2017-09-29T22:18:14.376Z,61.15
2017-09-29T22:20:16.828Z,61.23
2017-09-29T22:22:19.340Z,61.13
2017-09-29T22:24:21.776Z,61.64
2017-09-29T22:26:24.261Z,61.50
2017-09-29T22:28:26.702Z,61.57
2017-09-29T22:30:29.148Z,61.52
2017-09-29T22:32:31.663Z,61.74
2017-09-29T22:34:34.140Z,61.47
2017-09-29T22:36:36.584Z,61.47
2017-09-29T22:38:39.068Z,61.62
2017-09-29T22:40:41.517Z,61.55
2017-09-29T22:42:43.983Z,61.79
2017-09-29T22:44:46.447Z,61.37
2017-09-29T22:46:48.949Z,61.28
2017-09-29T22:48:51.449Z,61.58
2017-09-29T22:50:53.912Z,61.38
2017-09-29T22:52:56.357Z,61.51
2017-09-29T22:54:58.844Z,61.32
2017-09-29T22:57:01.307Z,61.98
2017-09-29T22:59:03.770Z,61.45
2017-09-29T23:01:06.209Z,61.38
2017-09-29T23:03:08.678Z,61.27
2017-09-29T23:05:11.112Z,61.39
2017-09-29T23:07:13.556Z,61.36
2017-09-29T23:09:16.218Z,61.49
2017-09-29T23:11:18.664Z,61.35
2017-09-29T23:13:21.095Z,61.22
2017-09-29T23:15:23.560Z,61.19
2017-09-29T23:17:26.001Z,61.28
2017-09-29T23:19:28.448Z,61.08
2017-09-29T23:21:30.953Z,61.13
2017-09-29T23:23:33.521Z,61.15
2017-09-29T23:25:35.957Z,61.12
2017-09-29T23:27:38.447Z,61.06
2017-09-29T23:29:40.993Z,61.09
2017-09-29T23:31:43.427Z,61.17
2017-09-29T23:33:45.888Z,61.08
2017-09-29T23:35:48.338Z,61.18
2017-09-29T23:37:50.780Z,61.67
2017-09-29T23:39:53.269Z,61.35
2017-09-29T23:41:55.702Z,61.52
2017-09-29T23:43:58.144Z,61.50
2017-09-29T23:46:00.698Z,61.71
2017-09-29T23:48:03.130Z,61.95
2017-09-29T23:50:05.641Z,61.73
2017-09-29T23:52:08.113Z,61.30
2017-09-29T23:54:10.551Z,62.14
2017-09-29T23:56:13.000Z,61.74
2017-09-29T23:58:15.512Z,61.33
